Time;durP1;ratioP1;P1;durP2;ratioP2;P2;SDS_P1;SDS_P2;PMS_P1;PMS_P2;Temp;Humidity;BMP_temperature;BMP_pressure;BME280_temperature;BME280_humidity;BME280_pressure;Samples;Min_cycle;Max_cycle;Signal;HPM_P1;HPM_P2
2022/05/01 00:01:15;;;;;;;8.18;3.38;;;5.60;99.90;;;;;;5029025;28;20041;-66
2022/05/01 00:03:42;;;;;;;3.58;3.10;;;5.70;99.90;;;;;;5029613;28;20060;-66
2022/05/01 00:06:11;;;;;;;4.63;4.22;;;5.60;99.90;;;;;;5027342;28;20041;-68
2022/05/01 00:08:42;;;;;;;4.03;3.63;;;5.60;99.90;;;;;;5025198;28;20049;-67
2022/05/01 00:11:09;;;;;;;7.55;3.90;;;5.60;99.90;;;;;;5026811;28;20148;-66
2022/05/01 00:13:41;;;;;;;7.35;5.13;;;5.70;99.90;;;;;;5026881;28;20399;-69
2022/05/01 00:16:09;;;;;;;4.90;4.32;;;5.60;99.90;;;;;;5027579;28;20088;-68
2022/05/01 00:18:37;;;;;;;4.70;4.15;;;5.60;99.90;;;;;;5029690;28;20372;-66
2022/05/01 00:21:04;;;;;;;6.85;4.50;;;5.60;99.90;;;;;;5028091;28;21495;-66
2022/05/01 00:23:32;;;;;;;8.15;5.20;;;5.60;99.90;;;;;;5028535;28;20095;-65
2022/05/01 00:26:00;;;;;;;7.10;5.47;;;5.60;99.90;;;;;;5028121;28;21380;-65
2022/05/01 00:28:28;;;;;;;6.88;4.95;;;5.60;99.90;;;;;;5028174;28;20143;-65
2022/05/01 00:30:56;;;;;;;7.13;5.50;;;5.60;99.90;;;;;;5010013;28;20202;-64
2022/05/01 00:36:28;;;;;;;8.43;5.70;;;5.60;99.90;;;;;;5022094;28;20788;-66
2022/05/01 00:39:03;;;;;;;6.55;5.90;;;5.60;99.90;;;;;;5028557;28;20515;-66
2022/05/01 00:41:32;;;;;;;6.78;5.05;;;5.60;99.90;;;;;;5027652;28;20049;-66
2022/05/01 00:44:04;;;;;;;8.05;5.43;;;5.60;99.90;;;;;;5028777;28;20041;-68
2022/05/01 00:46:33;;;;;;;6.80;5.70;;;5.60;99.90;;;;;;5026707;28;20415;-67
2022/05/01 00:49:03;;;;;;;8.80;5.20;;;5.50;99.90;;;;;;5027955;28;20127;-66
2022/05/01 00:51:33;;;;;;;8.88;6.00;;;5.50;99.90;;;;;;5026745;28;21054;-68
2022/05/01 00:54:02;;;;;;;7.25;5.63;;;5.50;99.90;;;;;;5028585;28;20138;-65
2022/05/01 00:56:30;;;;;;;8.40;5.80;;;5.60;99.90;;;;;;5021908;28;20135;-67
2022/05/01 00:58:57;;;;;;;11.20;6.18;;;5.60;99.90;;;;;;5004656;28;20053;-66
2022/05/01 01:01:24;;;;;;;8.68;5.45;;;5.60;99.90;;;;;;5026362;28;20056;-66
2022/05/01 01:03:54;;;;;;;7.65;5.45;;;5.60;99.90;;;;;;5027535;28;20041;-66
2022/05/01 01:06:23;;;;;;;6.47;5.95;;;5.60;99.90;;;;;;5023867;28;20076;-66
2022/05/01 01:08:50;;;;;;;5.47;4.85;;;5.60;99.90;;;;;;5027535;28;20488;-64
2022/05/01 01:11:17;;;;;;;6.13;4.75;;;5.60;99.90;;;;;;5026404;28;20594;-68
2022/05/01 01:13:49;;;;;;;6.05;5.53;;;5.60;99.90;;;;;;5026689;28;20053;-65
2022/05/01 01:16:16;;;;;;;5.95;4.25;;;5.60;99.90;;;;;;5024136;28;21258;-66
2022/05/01 01:18:44;;;;;;;8.75;5.40;;;5.60;99.90;;;;;;5023805;28;20123;-69
2022/05/01 01:21:11;;;;;;;6.30;4.60;;;5.50;99.90;;;;;;5023658;28;20186;-65
2022/05/01 01:23:41;;;;;;;5.30;4.28;;;5.50;99.90;;;;;;5028149;28;20136;-66
2022/05/01 01:26:10;;;;;;;5.32;4.30;;;5.50;99.90;;;;;;5025882;28;20143;-69
2022/05/01 01:28:39;;;;;;;6.30;4.65;;;5.50;99.90;;;;;;5027866;28;20132;-66
2022/05/01 01:34:00;;;;;;;8.40;3.75;;;5.50;99.90;;;;;;5026657;28;20132;-65
2022/05/01 01:36:30;;;;;;;5.97;4.43;;;5.50;99.90;;;;;;5023608;28;20061;-65
2022/05/01 01:38:57;;;;;;;8.57;4.30;;;5.50;99.90;;;;;;5024498;28;20744;-69
2022/05/01 01:41:30;;;;;;;5.05;3.72;;;5.50;99.90;;;;;;5026057;28;20049;-68
2022/05/01 01:43:58;;;;;;;5.63;4.03;;;5.50;99.90;;;;;;5041370;28;20123;-69
2022/05/01 01:46:25;;;;;;;6.30;3.85;;;5.50;99.90;;;;;;5025973;28;20115;-64
2022/05/01 01:48:52;;;;;;;14.15;3.85;;;5.50;99.90;;;;;;5027661;28;20060;-65
2022/05/01 01:51:20;;;;;;;4.18;3.35;;;5.50;99.90;;;;;;5024879;28;20061;-69
2022/05/01 01:53:47;;;;;;;4.35;3.63;;;5.50;99.90;;;;;;5040619;28;20985;-65
2022/05/01 01:56:14;;;;;;;3.63;3.00;;;5.50;99.90;;;;;;5023495;28;20061;-68
2022/05/01 01:58:41;;;;;;;5.35;2.78;;;5.50;99.90;;;;;;5023693;28;20045;-69
2022/05/01 02:01:10;;;;;;;3.78;3.20;;;5.50;99.90;;;;;;5022601;28;20059;-67
2022/05/01 02:03:38;;;;;;;4.05;2.58;;;5.50;99.90;;;;;;5022904;28;20045;-68
2022/05/01 02:06:06;;;;;;;6.65;2.63;;;5.50;99.90;;;;;;5025901;28;21230;-67
2022/05/01 02:08:34;;;;;;;5.43;2.92;;;5.40;99.90;;;;;;5022052;28;20222;-65
2022/05/01 02:11:03;;;;;;;4.97;3.47;;;5.40;99.90;;;;;;5024986;28;20057;-66
2022/05/01 02:13:30;;;;;;;6.72;2.40;;;5.40;99.90;;;;;;5026476;28;20040;-65
2022/05/01 02:15:57;;;;;;;3.40;2.83;;;5.50;99.90;;;;;;5024723;28;20570;-66
2022/05/01 02:18:25;;;;;;;3.83;2.15;;;5.50;99.90;;;;;;5022249;28;21145;-67
2022/05/01 02:23:51;;;;;;;4.85;2.00;;;5.50;99.90;;;;;;5002252;28;20129;-66
2022/05/01 02:26:18;;;;;;;3.75;2.75;;;5.50;99.90;;;;;;5024073;28;20041;-66
2022/05/01 02:28:45;;;;;;;4.55;2.78;;;5.50;99.90;;;;;;5025713;28;20455;-67
2022/05/01 02:31:12;;;;;;;2.35;2.05;;;5.50;99.90;;;;;;5025472;28;20059;-67
2022/05/01 02:33:40;;;;;;;5.25;3.05;;;5.50;99.90;;;;;;5024323;28;20048;-68
2022/05/01 02:36:07;;;;;;;2.17;1.85;;;5.50;99.90;;;;;;5024003;28;20053;-65
2022/05/01 02:38:35;;;;;;;2.45;2.03;;;5.40;99.90;;;;;;5027235;28;20049;-67
2022/05/01 02:41:02;;;;;;;3.30;2.47;;;5.50;99.90;;;;;;5026319;28;20037;-65
2022/05/01 02:43:29;;;;;;;3.13;2.58;;;5.50;99.90;;;;;;5027387;28;20050;-67
2022/05/01 02:45:56;;;;;;;5.07;2.42;;;5.40;99.90;;;;;;5026351;28;20063;-66
2022/05/01 02:48:23;;;;;;;2.35;2.13;;;5.40;99.90;;;;;;5024758;28;20449;-67
2022/05/01 02:50:50;;;;;;;2.78;1.85;;;5.40;99.90;;;;;;5026772;28;20064;-66
2022/05/01 02:53:17;;;;;;;4.88;2.00;;;5.50;99.90;;;;;;5024889;28;21484;-71
2022/05/01 02:55:44;;;;;;;2.20;2.00;;;5.50;99.90;;;;;;5025149;28;20049;-68
2022/05/01 02:58:11;;;;;;;2.85;2.20;;;5.50;99.90;;;;;;5039055;28;20138;-67
2022/05/01 03:00:38;;;;;;;3.00;2.70;;;5.50;99.90;;;;;;5026777;28;20053;-64
2022/05/01 03:03:05;;;;;;;3.28;2.00;;;5.50;99.90;;;;;;5027132;28;20817;-67
2022/05/01 03:05:33;;;;;;;2.97;2.10;;;5.50;99.90;;;;;;5030435;28;20040;-68
2022/05/01 03:08:00;;;;;;;2.78;1.98;;;5.50;99.90;;;;;;5029430;28;20566;-67
2022/05/01 03:10:25;;;;;;;6.53;2.30;;;5.50;99.90;;;;;;5027336;28;20045;-65
2022/05/01 03:12:52;;;;;;;3.88;2.65;;;5.50;99.90;;;;;;5030268;28;20107;-64
2022/05/01 03:15:19;;;;;;;3.30;3.00;;;5.50;99.90;;;;;;5030419;28;20848;-67
2022/05/01 03:23:18;;;;;;;2.65;1.60;;;5.50;99.90;;;;;;5030075;28;20127;-65
2022/05/01 03:25:44;;;;;;;2.17;1.70;;;5.50;99.90;;;;;;5027805;28;20053;-68
2022/05/01 03:28:11;;;;;;;3.40;2.17;;;5.50;99.90;;;;;;5027963;28;20053;-69
2022/05/01 03:30:38;;;;;;;2.38;2.03;;;5.50;99.90;;;;;;5030348;28;20053;-65
2022/05/01 03:33:07;;;;;;;5.05;2.03;;;5.60;99.90;;;;;;5029287;28;20436;-65
2022/05/01 03:35:37;;;;;;;4.15;2.17;;;5.60;99.90;;;;;;5028732;28;20052;-67
2022/05/01 03:38:08;;;;;;;;;;;5.60;99.90;;;;;;5029899;28;20037;-67
2022/05/01 03:40:35;;;;;;;3.58;2.47;;;5.60;99.90;;;;;;5009074;28;19925;-68
2022/05/01 03:43:03;;;;;;;6.60;2.17;;;5.60;99.90;;;;;;5030145;28;20049;-67
2022/05/01 03:45:30;;;;;;;3.05;1.83;;;5.60;99.90;;;;;;5030885;28;20263;-65
2022/05/01 03:47:57;;;;;;;2.33;1.30;;;5.60;99.90;;;;;;5030055;28;20851;-65
2022/05/01 03:50:25;;;;;;;2.30;1.95;;;5.60;99.90;;;;;;5027839;28;20076;-67
2022/05/01 03:52:52;;;;;;;2.20;1.98;;;5.60;99.90;;;;;;5029872;28;20079;-64
2022/05/01 03:55:18;;;;;;;2.92;1.90;;;5.60;99.90;;;;;;5029111;28;20142;-67
2022/05/01 03:57:45;;;;;;;2.13;1.90;;;5.70;99.90;;;;;;5028571;28;20800;-65
2022/05/01 04:00:18;;;;;;;3.92;2.38;;;5.70;99.90;;;;;;5028591;28;20395;-68
2022/05/01 04:02:46;;;;;;;4.00;2.05;;;5.80;99.90;;;;;;5028923;28;20070;-67
2022/05/01 04:05:15;;;;;;;1.67;1.55;;;5.80;99.90;;;;;;5029158;28;20152;-66
2022/05/01 04:07:42;;;;;;;2.58;1.63;;;5.80;99.90;;;;;;5029506;28;20145;-68
2022/05/01 04:10:11;;;;;;;2.63;1.40;;;5.80;99.90;;;;;;5027683;28;20452;-68
2022/05/01 04:12:40;;;;;;;3.15;1.52;;;5.90;99.90;;;;;;5029736;28;20041;-64
2022/05/01 04:15:09;;;;;;;2.70;1.50;;;5.90;99.90;;;;;;5029906;28;20553;-66
2022/05/01 04:17:39;;;;;;;4.32;1.90;;;5.90;99.90;;;;;;5028840;28;20151;-65
2022/05/01 04:20:12;;;;;;;2.33;1.67;;;6.00;99.90;;;;;;5029967;28;20149;-66
2022/05/01 04:22:43;;;;;;;1.75;1.52;;;6.00;99.90;;;;;;5026589;28;20752;-67
2022/05/01 04:25:22;;;;;;;3.03;1.40;;;6.10;99.90;;;;;;5029702;28;20527;-67
2022/05/01 04:27:55;;;;;;;2.45;1.73;;;6.10;99.90;;;;;;5028592;28;20049;-68
2022/05/01 04:30:22;;;;;;;3.90;1.60;;;6.20;99.90;;;;;;5027055;28;20045;-64
2022/05/01 04:32:53;;;;;;;3.58;1.30;;;6.20;99.90;;;;;;5026202;28;20055;-68
2022/05/01 04:35:20;;;;;;;2.47;1.83;;;6.30;99.90;;;;;;5027795;28;20053;-66
2022/05/01 04:37:47;;;;;;;1.67;1.50;;;6.40;99.90;;;;;;5027461;28;20045;-64
2022/05/01 04:40:18;;;;;;;3.00;1.90;;;6.40;99.90;;;;;;5025385;28;20126;-65
2022/05/01 04:42:45;;;;;;;3.65;2.42;;;6.40;99.90;;;;;;5027806;28;20127;-66
2022/05/01 04:45:12;;;;;;;5.82;2.67;;;6.50;99.90;;;;;;5027497;28;20418;-67
2022/05/01 04:47:39;;;;;;;5.20;2.53;;;6.40;99.90;;;;;;5024843;28;20549;-67
2022/05/01 04:50:06;;;;;;;3.05;2.38;;;6.40;99.90;;;;;;5026987;28;20550;-69
2022/05/01 04:52:38;;;;;;;5.28;3.65;;;6.50;99.90;;;;;;5028928;28;20618;-66
2022/05/01 04:55:05;;;;;;;3.35;2.67;;;6.50;99.90;;;;;;5031269;28;20189;-66
2022/05/01 04:57:32;;;;;;;5.93;3.10;;;6.50;99.90;;;;;;5032527;28;20050;-65
2022/05/01 05:00:00;;;;;;;5.28;2.00;;;6.50;99.90;;;;;;5031234;28;20059;-66
2022/05/01 05:02:34;;;;;;;3.60;2.33;;;6.50;99.90;;;;;;5029919;28;20478;-64
2022/05/01 05:05:03;;;;;;;5.65;2.97;;;6.50;99.90;;;;;;5029348;28;20052;-66
2022/05/01 05:07:31;;;;;;;3.78;2.70;;;6.50;99.90;;;;;;5024689;28;20049;-67
2022/05/01 05:09:58;;;;;;;4.88;2.85;;;6.50;99.90;;;;;;5026061;28;20073;-67
2022/05/01 05:12:25;;;;;;;5.50;2.60;;;6.50;99.90;;;;;;5024462;28;21115;-67
2022/05/01 05:14:55;;;;;;;3.33;2.15;;;6.60;99.90;;;;;;5026912;28;20155;-66
2022/05/01 05:17:22;;;;;;;5.03;2.30;;;6.60;99.90;;;;;;5026313;28;20271;-69
2022/05/01 05:19:49;;;;;;;5.15;2.10;;;6.70;99.90;;;;;;5024914;28;20053;-66
2022/05/01 05:22:16;;;;;;;3.28;2.08;;;6.70;99.90;;;;;;5025430;28;20529;-68
2022/05/01 05:24:43;;;;;;;3.88;1.88;;;6.80;99.90;;;;;;5028124;28;20069;-68
2022/05/01 05:27:11;;;;;;;2.45;2.15;;;6.90;99.90;;;;;;5025984;28;20184;-67
2022/05/01 05:29:38;;;;;;;5.20;2.05;;;6.90;99.90;;;;;;5026250;28;20060;-67
2022/05/01 05:32:06;;;;;;;4.28;2.40;;;7.00;99.90;;;;;;5024157;28;20052;-69
2022/05/01 05:34:33;;;;;;;5.72;3.47;;;7.00;99.90;;;;;;5022972;28;20152;-66
2022/05/01 05:37:00;;;;;;;3.95;1.85;;;7.00;99.90;;;;;;5025443;28;20044;-64
2022/05/01 05:39:27;;;;;;;2.88;2.25;;;7.10;99.90;;;;;;5023324;28;20126;-65
2022/05/01 05:41:54;;;;;;;5.20;2.10;;;7.10;99.90;;;;;;5027112;28;20068;-65
2022/05/01 05:44:22;;;;;;;2.58;1.77;;;7.10;99.90;;;;;;5024883;28;20049;-66
2022/05/01 05:46:49;;;;;;;4.57;1.85;;;7.20;99.90;;;;;;5027295;28;20056;-68
2022/05/01 05:49:16;;;;;;;3.75;2.17;;;7.20;99.90;;;;;;5037495;28;20762;-66
2022/05/01 05:51:43;;;;;;;2.20;2.00;;;7.30;99.90;;;;;;5024375;28;20055;-65
2022/05/01 05:54:09;;;;;;;2.53;1.45;;;7.40;99.90;;;;;;5023842;28;20140;-70
2022/05/01 05:56:36;;;;;;;1.75;1.10;;;7.40;99.90;;;;;;5023584;28;20049;-68
2022/05/01 05:59:03;;;;;;;1.75;1.23;;;7.50;99.90;;;;;;5026795;28;21477;-64
2022/05/01 06:01:30;;;;;;;2.10;1.27;;;7.60;99.90;;;;;;5026414;28;20319;-68
2022/05/01 06:03:58;;;;;;;2.90;0.82;;;7.70;99.90;;;;;;5025523;28;20068;-67
2022/05/01 06:06:25;;;;;;;3.13;0.85;;;7.80;99.90;;;;;;5021726;28;20057;-69
2022/05/01 06:08:51;;;;;;;2.58;1.30;;;7.90;99.90;;;;;;5024349;28;20353;-68
2022/05/01 06:11:18;;;;;;;4.13;1.42;;;8.00;99.40;;;;;;5025121;28;20909;-65
2022/05/01 06:13:45;;;;;;;2.22;1.20;;;8.10;97.80;;;;;;5022068;28;21027;-65
2022/05/01 06:16:13;;;;;;;1.70;0.70;;;8.10;96.50;;;;;;5023996;28;20049;-66
2022/05/01 06:18:39;;;;;;;1.17;1.08;;;8.20;96.00;;;;;;5023589;28;20165;-66
2022/05/01 06:21:06;;;;;;;2.53;1.13;;;8.30;95.50;;;;;;5017258;28;20469;-69
2022/05/01 06:23:35;;;;;;;2.30;0.80;;;8.40;95.20;;;;;;5025359;28;20515;-66
2022/05/01 06:26:04;;;;;;;1.30;1.20;;;8.40;95.10;;;;;;5020431;28;20045;-66
2022/05/01 06:28:31;;;;;;;1.48;0.75;;;8.50;95.00;;;;;;5019432;28;20041;-64
2022/05/01 06:30:59;;;;;;;1.77;1.33;;;8.50;95.40;;;;;;5021191;28;20119;-66
2022/05/01 06:33:28;;;;;;;2.60;0.90;;;8.60;94.80;;;;;;5021136;28;20156;-69
2022/05/01 06:35:56;;;;;;;0.97;0.90;;;8.70;94.00;;;;;;5024052;28;20049;-67
2022/05/01 06:38:23;;;;;;;1.05;0.85;;;8.70;94.70;;;;;;5020654;28;20378;-68
2022/05/01 06:40:50;;;;;;;1.40;1.30;;;8.70;93.30;;;;;;5022671;28;20979;-67
2022/05/01 06:43:19;;;;;;;1.25;0.90;;;8.70;93.00;;;;;;5024301;28;20056;-68
2022/05/01 06:45:47;;;;;;;1.60;1.13;;;8.70;93.90;;;;;;5022017;28;20056;-67
2022/05/01 06:48:18;;;;;;;3.50;1.27;;;8.80;94.20;;;;;;5018981;28;20048;-67
2022/05/01 06:50:45;;;;;;;1.92;1.08;;;8.80;93.40;;;;;;5022708;28;20048;-64
2022/05/01 06:53:11;;;;;;;2.35;1.75;;;8.80;93.50;;;;;;5024058;28;20210;-66
2022/05/01 06:55:38;;;;;;;2.40;0.80;;;8.80;93.70;;;;;;5020884;28;20053;-66
2022/05/01 06:58:05;;;;;;;1.98;1.23;;;8.80;93.90;;;;;;5023706;28;20077;-66
2022/05/01 07:00:32;;;;;;;1.15;0.70;;;8.70;94.00;;;;;;5019418;28;20136;-64
2022/05/01 07:02:59;;;;;;;7.15;1.30;;;8.70;94.60;;;;;;5020580;28;20049;-69
2022/05/01 07:05:27;;;;;;;1.80;1.30;;;8.80;95.20;;;;;;5023054;28;20212;-66
2022/05/01 07:07:54;;;;;;;1.65;1.35;;;8.70;95.40;;;;;;5021332;28;20121;-65
2022/05/01 07:10:23;;;;;;;1.85;1.20;;;8.70;95.20;;;;;;5016036;28;20171;-65
2022/05/01 07:12:50;;;;;;;2.05;1.10;;;8.80;96.10;;;;;;5024727;28;20174;-68
2022/05/01 07:15:17;;;;;;;1.85;1.40;;;8.90;96.20;;;;;;5022209;28;20044;-65
2022/05/01 07:17:44;;;;;;;3.30;1.20;;;9.00;96.20;;;;;;5021918;28;20522;-67
2022/05/01 07:20:11;;;;;;;1.95;1.48;;;9.10;96.30;;;;;;5020552;28;20049;-67
2022/05/01 07:22:44;;;;;;;1.92;1.42;;;9.20;95.80;;;;;;5022224;28;20137;-65
2022/05/01 07:25:11;;;;;;;2.38;1.27;;;9.30;95.60;;;;;;5024680;28;20150;-63
2022/05/01 07:27:38;;;;;;;2.53;1.27;;;9.40;94.80;;;;;;5022924;28;20173;-70
2022/05/01 07:30:05;;;;;;;2.22;1.67;;;9.40;95.30;;;;;;5027174;28;20680;-66
2022/05/01 07:32:32;;;;;;;1.55;1.33;;;9.50;95.30;;;;;;5020985;28;20490;-64
2022/05/01 07:34:59;;;;;;;2.38;1.10;;;9.40;94.80;;;;;;5021615;28;20132;-66
2022/05/01 07:37:26;;;;;;;3.08;2.45;;;9.30;94.80;;;;;;5026037;28;20068;-67
2022/05/01 07:39:54;;;;;;;5.13;1.80;;;9.10;95.90;;;;;;5022617;28;20053;-67
2022/05/01 07:42:23;;;;;;;2.17;1.70;;;9.00;96.50;;;;;;5022154;28;20091;-67
2022/05/01 07:44:51;;;;;;;2.80;1.95;;;9.00;96.80;;;;;;5021480;28;20163;-67
2022/05/01 07:47:18;;;;;;;2.65;1.90;;;8.90;96.40;;;;;;5023039;28;20810;-68
2022/05/01 07:49:45;;;;;;;2.20;2.00;;;8.90;97.20;;;;;;5026648;28;20048;-67
2022/05/01 07:52:13;;;;;;;3.10;1.80;;;8.90;97.90;;;;;;5023742;28;20041;-67
2022/05/01 07:54:40;;;;;;;3.55;2.15;;;8.90;97.60;;;;;;5023776;28;20051;-67
2022/05/01 07:57:08;;;;;;;3.63;2.45;;;9.00;99.00;;;;;;5027417;28;21169;-67
2022/05/01 07:59:35;;;;;;;2.75;2.55;;;9.00;99.40;;;;;;5031492;28;20041;-66
2022/05/01 08:02:02;;;;;;;3.40;2.47;;;8.90;99.70;;;;;;5025230;28;20049;-69
2022/05/01 08:04:30;;;;;;;4.03;2.58;;;8.80;99.90;;;;;;5022280;28;20067;-69
2022/05/01 08:06:59;;;;;;;5.22;3.00;;;8.80;99.90;;;;;;5024051;28;20056;-67
2022/05/01 08:09:27;;;;;;;3.10;2.80;;;8.80;99.90;;;;;;5026569;28;20059;-67
2022/05/01 08:11:55;;;;;;;4.85;2.47;;;8.80;99.90;;;;;;5028469;28;20045;-69
2022/05/01 08:14:22;;;;;;;6.93;2.75;;;8.80;99.90;;;;;;5026017;28;20053;-67
2022/05/01 08:16:49;;;;;;;3.85;2.35;;;8.80;99.90;;;;;;5025217;28;20056;-65
2022/05/01 08:22:04;;;;;;;2.58;2.25;;;8.60;99.90;;;;;;5026947;28;21360;-63
2022/05/01 08:24:32;;;;;;;2.97;2.38;;;8.70;99.90;;;;;;5029168;28;20092;-70
2022/05/01 08:27:08;;;;;;;4.03;2.90;;;8.70;99.90;;;;;;5025411;28;20156;-65
2022/05/01 08:29:39;;;;;;;2.40;2.03;;;8.70;99.90;;;;;;5027176;28;20059;-67
2022/05/01 08:32:07;;;;;;;3.65;3.17;;;8.80;99.90;;;;;;5023928;28;20060;-66
2022/05/01 08:34:33;;;;;;;4.60;3.42;;;8.70;99.90;;;;;;5006961;28;20041;-70
2022/05/01 08:37:00;;;;;;;4.15;2.83;;;8.70;99.90;;;;;;5026632;28;20156;-70
2022/05/01 08:39:27;;;;;;;4.53;3.08;;;8.70;99.90;;;;;;5024854;28;20542;-68
2022/05/01 08:41:54;;;;;;;5.55;2.22;;;8.70;99.90;;;;;;5024377;28;20160;-67
2022/05/01 08:44:34;;;;;;;3.08;2.78;;;8.80;99.90;;;;;;5026781;28;20080;-68
2022/05/01 08:47:16;;;;;;;7.18;3.20;;;8.90;99.90;;;;;;5025072;28;20128;-65
2022/05/01 08:49:45;;;;;;;3.53;2.75;;;9.00;99.90;;;;;;5026848;28;20684;-70
2022/05/01 08:52:14;;;;;;;4.13;3.37;;;8.90;99.90;;;;;;5025545;28;20488;-64
2022/05/01 08:54:41;;;;;;;3.70;2.83;;;8.90;99.90;;;;;;5028899;28;20389;-65
2022/05/01 08:57:08;;;;;;;3.80;3.35;;;8.90;99.90;;;;;;5024943;28;20049;-68
2022/05/01 08:59:36;;;;;;;5.38;2.97;;;9.00;99.90;;;;;;5023295;28;20120;-70
2022/05/01 09:02:03;;;;;;;2.75;2.20;;;9.10;99.90;;;;;;5025951;28;20566;-66
2022/05/01 09:04:31;;;;;;;3.90;3.50;;;9.20;99.90;;;;;;5025292;28;20044;-68
2022/05/01 09:07:01;;;;;;;2.80;2.60;;;9.30;99.90;;;;;;5024684;28;20068;-67
2022/05/01 09:09:28;;;;;;;3.33;2.63;;;9.30;99.90;;;;;;5025042;28;20053;-67
2022/05/01 09:14:41;;;;;;;5.07;3.95;;;9.30;99.90;;;;;;5026443;28;20045;-66
2022/05/01 09:17:17;;;;;;;4.43;3.55;;;9.10;99.90;;;;;;5023564;28;20168;-66
2022/05/01 09:19:48;;;;;;;5.30;3.65;;;9.00;99.90;;;;;;5026038;28;20426;-66
2022/05/01 09:22:18;;;;;;;5.45;4.22;;;8.80;99.90;;;;;;5021190;28;20171;-69
2022/05/01 09:24:48;;;;;;;4.22;3.40;;;8.60;99.90;;;;;;5026030;28;20052;-66
2022/05/01 09:27:32;;;;;;;4.72;3.88;;;8.60;99.90;;;;;;5023380;28;20072;-67
2022/05/01 09:30:08;;;;;;;5.03;3.28;;;8.70;99.90;;;;;;5026555;28;20045;-67
2022/05/01 09:32:39;;;;;;;8.40;6.97;;;8.60;99.90;;;;;;5023278;28;20045;-68
2022/05/01 09:35:12;;;;;;;3.90;3.22;;;8.50;99.90;;;;;;5022241;28;20107;-66
2022/05/01 09:37:39;;;;;;;5.18;3.95;;;8.40;99.90;;;;;;5024793;28;20045;-69
2022/05/01 09:40:07;;;;;;;5.43;3.88;;;8.20;99.90;;;;;;5021696;28;20060;-67
2022/05/01 09:42:35;;;;;;;5.00;3.70;;;8.10;99.90;;;;;;5019019;28;20049;-68
2022/05/01 09:45:06;;;;;;;5.60;3.90;;;8.10;99.90;;;;;;5024277;28;20049;-66
2022/05/01 09:47:38;;;;;;;8.02;2.95;;;8.30;99.90;;;;;;5019728;28;20102;-67
2022/05/01 09:50:06;;;;;;;4.57;3.50;;;8.40;99.90;;;;;;5021008;28;20056;-68
2022/05/01 09:52:59;;;;;;;6.10;3.65;;;8.20;99.90;;;;;;5022406;28;20045;-67
2022/05/01 09:55:27;;;;;;;4.15;3.63;;;8.30;99.90;;;;;;5025503;28;21107;-66
2022/05/01 09:58:03;;;;;;;4.47;3.70;;;8.50;99.90;;;;;;5021771;28;20049;-69
2022/05/01 10:00:39;;;;;;;3.83;3.38;;;8.40;99.90;;;;;;5022882;28;20052;-66
2022/05/01 10:03:18;;;;;;;4.68;4.22;;;8.60;99.90;;;;;;5021126;28;20053;-65
2022/05/01 10:05:47;;;;;;;3.58;2.60;;;8.60;99.90;;;;;;5021717;28;20107;-64
2022/05/01 10:08:17;;;;;;;8.52;3.42;;;8.50;99.90;;;;;;5020815;28;20041;-69
2022/05/01 10:10:47;;;;;;;4.18;3.05;;;8.30;99.90;;;;;;5022728;28;20565;-66
2022/05/01 10:13:14;;;;;;;4.25;3.58;;;8.30;99.90;;;;;;5022431;28;20144;-66
2022/05/01 10:16:06;;;;;;;4.47;3.25;;;8.30;99.90;;;;;;5025522;28;20317;-69
2022/05/01 10:18:34;;;;;;;4.95;3.17;;;8.50;99.90;;;;;;5023687;28;20079;-65
2022/05/01 10:21:02;;;;;;;4.00;3.33;;;8.70;99.90;;;;;;5021346;28;20081;-68
2022/05/01 10:23:30;;;;;;;3.63;2.85;;;8.60;99.90;;;;;;5018022;28;20191;-66
2022/05/01 10:26:00;;;;;;;2.53;2.33;;;8.50;99.90;;;;;;5003291;28;20115;-66
2022/05/01 10:28:51;;;;;;;4.07;2.72;;;8.60;99.90;;;;;;5022414;28;20064;-66
2022/05/01 10:34:57;;;;;;;3.30;2.70;;;8.30;99.90;;;;;;5019706;28;20858;-68
2022/05/01 10:38:03;;;;;;;4.50;2.58;;;8.20;99.90;;;;;;5019932;28;20079;-66
2022/05/01 10:40:47;;;;;;;2.75;2.22;;;8.40;99.90;;;;;;5036582;28;20083;-66
2022/05/01 10:43:55;;;;;;;5.28;2.45;;;8.80;99.90;;;;;;5020595;28;20163;-70
2022/05/01 10:46:22;;;;;;;6.78;1.88;;;8.80;99.90;;;;;;4923388;28;20119;-65
2022/05/01 10:48:50;;;;;;;5.18;1.90;;;8.90;99.90;;;;;;5023934;28;20061;-66
2022/05/01 10:51:38;;;;;;;2.85;2.22;;;9.00;99.90;;;;;;5015947;28;20052;-64
2022/05/01 10:54:32;;;;;;;3.38;1.83;;;8.90;99.90;;;;;;5016117;28;20659;-66
2022/05/01 10:57:11;;;;;;;4.43;2.38;;;9.00;99.90;;;;;;5016330;28;21518;-67
2022/05/01 10:59:46;;;;;;;2.38;1.63;;;9.00;99.90;;;;;;5016612;28;20056;-66
2022/05/01 11:02:32;;;;;;;2.70;1.52;;;8.90;99.90;;;;;;5014184;28;20139;-63
2022/05/01 11:05:03;;;;;;;4.03;2.05;;;8.80;99.90;;;;;;5019347;28;20751;-69
2022/05/01 11:07:34;;;;;;;4.28;2.00;;;8.80;99.90;;;;;;5004029;28;20208;-66
2022/05/01 11:10:05;;;;;;;3.72;1.75;;;8.60;99.90;;;;;;5006216;28;20075;-67
2022/05/01 11:12:34;;;;;;;4.28;1.58;;;8.70;99.90;;;;;;5017646;28;20055;-67
2022/05/01 11:15:11;;;;;;;3.50;1.75;;;8.90;99.90;;;;;;5003456;28;20816;-67
2022/05/01 11:17:44;;;;;;;3.35;2.45;;;9.10;99.90;;;;;;5022428;28;20076;-69
2022/05/01 11:20:14;;;;;;;1.88;1.75;;;9.20;99.90;;;;;;4994716;28;20044;-70
2022/05/01 11:22:45;;;;;;;3.22;2.22;;;9.00;99.90;;;;;;5024533;28;20132;-69
2022/05/01 11:25:18;;;;;;;3.55;2.45;;;9.10;99.90;;;;;;5023766;28;21625;-66
2022/05/01 11:27:53;;;;;;;2.72;1.85;;;8.90;99.90;;;;;;5024105;28;20127;-67
2022/05/01 11:30:26;;;;;;;3.00;2.80;;;9.00;99.90;;;;;;5024657;28;20095;-69
2022/05/01 11:33:08;;;;;;;3.47;2.65;;;9.20;99.90;;;;;;5024395;28;20056;-67
2022/05/01 11:35:56;;;;;;;2.78;1.67;;;8.90;99.90;;;;;;5023372;28;20053;-67
2022/05/01 11:38:30;;;;;;;4.15;2.65;;;8.90;99.90;;;;;;5025432;28;20152;-68
2022/05/01 11:41:00;;;;;;;6.25;2.72;;;9.00;99.90;;;;;;5026471;28;20053;-72
2022/05/01 11:43:28;;;;;;;5.72;3.45;;;9.00;99.90;;;;;;5024900;28;20144;-67
2022/05/01 11:46:01;;;;;;;5.18;3.17;;;9.20;99.90;;;;;;5041168;28;20052;-68
2022/05/01 11:48:29;;;;;;;5.68;2.50;;;9.30;99.90;;;;;;5022180;28;20048;-71
2022/05/01 11:51:00;;;;;;;3.88;1.92;;;9.40;99.90;;;;;;5021504;28;20439;-66
2022/05/01 11:53:28;;;;;;;5.68;3.15;;;9.50;99.90;;;;;;5026459;28;20155;-70
2022/05/01 12:04:33;;;;;;;5.00;2.58;;;9.60;99.90;;;;;;5008873;28;20045;-71
2022/05/01 12:07:03;;;;;;;3.13;2.38;;;9.80;99.90;;;;;;5025864;28;20045;-70
2022/05/01 12:09:34;;;;;;;4.78;1.67;;;10.00;99.90;;;;;;5023690;28;20119;-69
2022/05/01 12:12:02;;;;;;;3.28;2.42;;;10.10;99.90;;;;;;5021036;28;20086;-67
2022/05/01 12:14:29;;;;;;;2.63;2.17;;;9.90;99.90;;;;;;5020292;28;20068;-67
2022/05/01 12:16:56;;;;;;;2.67;2.10;;;9.70;99.90;;;;;;5018704;28;20600;-69
2022/05/01 12:19:40;;;;;;;3.95;2.88;;;9.70;99.90;;;;;;5024793;28;20221;-68
2022/05/01 12:22:11;;;;;;;4.45;2.72;;;9.90;99.90;;;;;;5024432;28;20079;-71
2022/05/01 12:24:38;;;;;;;6.43;2.72;;;9.90;99.90;;;;;;5023420;28;20142;-69
2022/05/01 12:27:09;;;;;;;3.75;3.05;;;10.00;99.90;;;;;;5038230;28;20053;-70
2022/05/01 12:29:37;;;;;;;4.47;2.30;;;10.20;99.90;;;;;;5026366;28;20049;-68
2022/05/01 12:32:11;;;;;;;2.92;2.42;;;10.00;99.90;;;;;;5021855;28;21483;-66
2022/05/01 12:34:55;;;;;;;3.20;2.72;;;10.10;99.90;;;;;;5023113;28;20076;-69
2022/05/01 12:37:32;;;;;;;5.82;3.60;;;10.20;99.90;;;;;;5024716;28;20061;-66
2022/05/01 12:39:59;;;;;;;3.22;2.55;;;10.10;99.90;;;;;;5023800;28;21277;-70
2022/05/01 12:45:20;;;;;;;4.32;2.10;;;10.50;99.90;;;;;;5019368;28;20459;-71
2022/05/01 12:47:51;;;;;;;2.80;2.15;;;10.50;99.90;;;;;;5020744;28;20059;-68
2022/05/01 12:50:18;;;;;;;2.60;1.95;;;10.20;99.90;;;;;;5024900;28;20045;-68
2022/05/01 12:52:50;;;;;;;4.38;2.08;;;10.00;99.90;;;;;;5022564;28;20140;-66
2022/05/01 12:55:21;;;;;;;2.72;2.20;;;9.80;99.90;;;;;;5024494;28;20443;-67
2022/05/01 12:57:54;;;;;;;3.70;2.88;;;9.70;99.90;;;;;;5028025;28;20055;-66
2022/05/01 13:00:45;;;;;;;8.88;2.85;;;9.70;99.90;;;;;;5025148;28;20045;-64
2022/05/01 13:03:19;;;;;;;;;;;10.10;99.90;;;;;;5021012;28;20123;-66
2022/05/01 13:05:58;;;;;;;3.13;2.15;;;10.20;99.90;;;;;;5026644;28;20021;-64
2022/05/01 13:08:25;;;;;;;3.28;2.83;;;10.30;99.90;;;;;;5006875;28;20140;-67
2022/05/01 13:11:11;;;;;;;3.00;2.38;;;10.00;99.90;;;;;;5040796;28;20064;-64
2022/05/01 13:13:48;;;;;;;5.85;3.00;;;10.20;99.90;;;;;;5026102;28;20148;-66
2022/05/01 13:16:17;;;;;;;2.95;2.65;;;10.30;99.90;;;;;;5026005;28;20099;-69
2022/05/01 13:18:45;;;;;;;4.15;2.40;;;10.50;99.90;;;;;;5027931;28;20060;-70
2022/05/01 13:21:12;;;;;;;4.53;3.10;;;10.70;99.90;;;;;;5030670;28;20060;-68
2022/05/01 13:23:40;;;;;;;6.13;2.88;;;11.10;99.90;;;;;;5026673;28;20056;-66
2022/05/01 13:26:08;;;;;;;3.92;3.30;;;10.90;99.90;;;;;;5023971;28;20144;-68
2022/05/01 13:28:35;;;;;;;6.07;3.05;;;10.50;99.90;;;;;;5023953;28;21314;-68
2022/05/01 13:31:03;;;;;;;2.92;2.63;;;10.40;99.90;;;;;;5025633;28;20712;-66
2022/05/01 13:33:29;;;;;;;6.15;3.58;;;10.10;99.90;;;;;;5025522;28;20067;-68
2022/05/01 13:35:57;;;;;;;7.25;2.63;;;10.00;99.90;;;;;;5021357;28;20060;-67
2022/05/01 13:38:24;;;;;;;2.85;2.55;;;10.20;99.90;;;;;;5025394;28;20477;-67
2022/05/01 13:46:22;;;;;;;4.68;3.17;;;10.70;99.90;;;;;;5007428;28;20065;-65
2022/05/01 13:48:51;;;;;;;3.13;2.75;;;11.20;99.90;;;;;;5023893;28;20045;-69